Time;durP1;ratioP1;P1;durP2;ratioP2;P2;SDS_P1;SDS_P2;PMS_P1;PMS_P2;Temp;Humidity;BMP_temperature;BMP_pressure;BME280_temperature;BME280_humidity;BME280_pressure;Samples;Min_cycle;Max_cycle;Signal;HPM_P1;HPM_P2
2022/05/27 00:01:21;;;;;;;7.72;1.70;;;16.50;98.60;;;;;;5054582;28;20021;-74
2022/05/27 00:03:47;;;;;;;6.32;1.63;;;16.50;98.50;;;;;;5054586;28;20032;-74
2022/05/27 00:06:13;;;;;;;6.70;1.55;;;16.50;98.60;;;;;;5054180;28;20025;-74
2022/05/27 00:08:38;;;;;;;5.18;1.35;;;16.50;98.60;;;;;;5054216;28;20029;-73
2022/05/27 00:11:04;;;;;;;8.57;1.83;;;16.50;98.70;;;;;;5054324;28;20494;-74
2022/05/27 00:13:30;;;;;;;8.90;1.92;;;16.50;98.70;;;;;;5054295;28;20380;-74
2022/05/27 00:15:56;;;;;;;11.18;1.90;;;16.50;98.70;;;;;;5054221;28;20075;-74
2022/05/27 00:18:22;;;;;;;9.82;1.83;;;16.50;98.90;;;;;;5054521;28;20025;-73
2022/05/27 00:20:48;;;;;;;12.15;2.47;;;16.50;98.70;;;;;;5054071;28;20025;-73
2022/05/27 00:23:15;;;;;;;11.90;2.40;;;16.60;98.80;;;;;;5053884;28;20053;-73
2022/05/27 00:25:41;;;;;;;9.73;2.60;;;16.50;99.10;;;;;;5053856;28;20543;-73
2022/05/27 00:28:07;;;;;;;9.63;2.92;;;16.50;99.20;;;;;;5053875;28;20109;-73
2022/05/27 00:30:32;;;;;;;8.35;2.33;;;16.50;99.40;;;;;;5053674;28;20029;-73
2022/05/27 00:32:58;;;;;;;10.98;2.60;;;16.50;99.60;;;;;;5053903;28;20021;-74
2022/05/27 00:35:24;;;;;;;11.20;2.95;;;16.50;99.70;;;;;;5053850;28;20025;-74
2022/05/27 00:37:50;;;;;;;10.80;2.85;;;16.50;99.90;;;;;;5053599;28;20025;-74
2022/05/27 00:40:17;;;;;;;12.48;3.17;;;16.40;99.90;;;;;;5053571;28;20032;-74
2022/05/27 00:42:44;;;;;;;8.73;2.60;;;16.40;99.90;;;;;;5053625;28;20025;-74
2022/05/27 00:45:16;;;;;;;11.38;3.25;;;16.40;99.90;;;;;;5053428;28;20036;-74
2022/05/27 00:47:43;;;;;;;10.68;3.10;;;16.30;99.90;;;;;;5053093;28;20176;-74
2022/05/27 00:50:11;;;;;;;9.70;2.47;;;16.30;99.90;;;;;;5053404;28;20044;-74
2022/05/27 00:52:38;;;;;;;8.05;2.28;;;16.20;99.90;;;;;;5053681;28;20021;-74
2022/05/27 00:55:08;;;;;;;9.43;2.17;;;16.10;99.90;;;;;;5053450;28;20025;-74
2022/05/27 00:57:40;;;;;;;6.28;1.30;;;16.10;99.90;;;;;;5053271;28;20496;-74
2022/05/27 01:00:09;;;;;;;7.27;1.20;;;16.00;99.90;;;;;;5052932;28;20025;-74
2022/05/27 01:02:36;;;;;;;5.30;1.30;;;16.00;99.90;;;;;;5053418;28;20330;-74
2022/05/27 01:05:03;;;;;;;5.78;0.95;;;16.00;99.90;;;;;;5053528;28;20029;-74
2022/05/27 01:07:29;;;;;;;5.18;1.17;;;16.00;99.90;;;;;;5053543;28;20099;-74
2022/05/27 01:09:57;;;;;;;5.15;1.02;;;16.00;99.90;;;;;;5053063;28;20033;-74
2022/05/27 01:12:29;;;;;;;4.95;1.00;;;16.00;99.90;;;;;;5052889;28;20535;-74
2022/05/27 01:15:16;;;;;;;8.40;1.63;;;15.90;99.90;;;;;;5053497;28;20029;-74
2022/05/27 01:18:02;;;;;;;6.05;0.95;;;15.90;99.90;;;;;;5053069;28;20028;-74
2022/05/27 01:20:49;;;;;;;3.85;1.20;;;15.90;99.90;;;;;;5053227;28;20029;-75
2022/05/27 01:23:52;;;;;;;6.03;1.15;;;15.90;99.90;;;;;;5053079;28;20025;-74
2022/05/27 01:26:37;;;;;;;2.88;0.93;;;15.90;99.90;;;;;;5053102;28;20024;-75
2022/05/27 01:29:17;;;;;;;3.05;0.90;;;15.90;99.90;;;;;;5052892;28;20033;-75
2022/05/27 01:32:11;;;;;;;4.22;1.38;;;15.90;99.90;;;;;;5052952;28;20551;-75
2022/05/27 01:34:56;;;;;;;5.43;1.30;;;15.80;99.90;;;;;;5052914;28;20021;-75
2022/05/27 01:37:40;;;;;;;4.50;1.17;;;15.80;99.90;;;;;;5053210;28;20017;-74
2022/05/27 01:40:17;;;;;;;5.28;1.23;;;15.80;99.90;;;;;;5052631;28;20499;-75
2022/05/27 01:42:48;;;;;;;4.18;1.20;;;15.70;99.90;;;;;;5053264;28;20024;-75
2022/05/27 01:45:26;;;;;;;4.55;1.23;;;15.70;99.90;;;;;;5052990;28;20029;-75
2022/05/27 01:48:09;;;;;;;6.90;1.00;;;15.70;99.90;;;;;;5052688;28;20179;-75
2022/05/27 01:50:37;;;;;;;;;;;15.70;99.90;;;;;;5053373;28;20036;-75
2022/05/27 01:53:23;;;;;;;8.75;1.70;;;15.70;99.90;;;;;;5052851;28;19905;-75
2022/05/27 01:56:00;;;;;;;5.80;1.80;;;15.70;99.90;;;;;;5052254;28;20060;-75
2022/05/27 01:58:35;;;;;;;4.28;1.23;;;15.70;99.90;;;;;;5052792;28;20025;-74
2022/05/27 02:01:02;;;;;;;6.80;1.95;;;15.70;99.90;;;;;;5056281;28;20033;-75
2022/05/27 02:03:42;;;;;;;7.03;1.42;;;15.70;99.90;;;;;;5056570;28;20468;-75
2022/05/27 02:06:11;;;;;;;8.20;1.77;;;15.70;99.90;;;;;;5056299;28;20025;-75
2022/05/27 02:08:49;;;;;;;6.70;1.75;;;15.80;99.90;;;;;;5056438;28;20032;-74
2022/05/27 02:11:19;;;;;;;7.28;2.05;;;15.70;99.90;;;;;;5056595;28;20080;-75
2022/05/27 02:14:06;;;;;;;9.02;1.58;;;15.70;99.90;;;;;;5056415;28;20373;-75
2022/05/27 02:16:38;;;;;;;3.47;1.27;;;15.70;99.90;;;;;;5056267;28;20108;-75
2022/05/27 02:19:09;;;;;;;5.93;1.55;;;15.80;99.90;;;;;;5056357;28;20021;-74
2022/05/27 02:21:41;;;;;;;7.47;1.55;;;15.80;99.90;;;;;;5056235;28;20422;-75
2022/05/27 02:24:25;;;;;;;10.93;2.40;;;15.80;99.90;;;;;;5056372;28;20138;-75
2022/05/27 02:27:02;;;;;;;9.65;2.13;;;15.80;99.90;;;;;;5056253;28;20459;-75
2022/05/27 02:29:30;;;;;;;6.03;1.63;;;15.80;99.90;;;;;;5056391;28;20025;-75
2022/05/27 02:32:08;;;;;;;10.98;2.10;;;15.80;99.90;;;;;;5056271;28;20033;-75
2022/05/27 02:37:32;;;;;;;6.68;1.73;;;15.90;99.90;;;;;;5056035;28;20028;-75
2022/05/27 02:40:01;;;;;;;6.00;1.55;;;15.90;99.90;;;;;;5055604;28;20075;-75
2022/05/27 02:42:35;;;;;;;8.35;1.88;;;15.90;99.90;;;;;;5056213;28;20021;-75
2022/05/27 02:45:06;;;;;;;8.25;2.17;;;15.90;99.90;;;;;;5055852;28;20029;-75
2022/05/27 02:47:42;;;;;;;10.40;2.70;;;15.90;99.90;;;;;;5055616;28;20048;-75
2022/05/27 02:50:23;;;;;;;8.57;1.90;;;15.90;99.90;;;;;;5055820;28;20044;-75
2022/05/27 02:53:23;;;;;;;6.88;1.88;;;15.90;99.90;;;;;;5055736;28;20354;-75
2022/05/27 02:55:55;;;;;;;8.38;1.90;;;15.90;99.90;;;;;;5055619;28;20036;-75
2022/05/27 02:58:21;;;;;;;10.18;2.58;;;15.90;99.90;;;;;;5055624;28;20033;-75
2022/05/27 03:00:47;;;;;;;9.00;2.38;;;15.90;99.90;;;;;;5055297;28;20503;-75
2022/05/27 03:03:12;;;;;;;7.80;2.00;;;15.90;99.90;;;;;;5055154;28;20033;-75
2022/05/27 03:05:56;;;;;;;7.65;1.65;;;15.90;99.90;;;;;;5055731;28;20018;-75
2022/05/27 03:08:43;;;;;;;8.18;1.98;;;15.90;99.90;;;;;;5055507;28;20029;-73
2022/05/27 03:11:23;;;;;;;11.07;2.30;;;15.90;99.90;;;;;;5054184;28;20072;-74
2022/05/27 03:14:28;;;;;;;5.05;1.92;;;15.80;99.90;;;;;;5055302;28;20380;-73
2022/05/27 03:17:11;;;;;;;7.10;1.80;;;15.90;99.90;;;;;;5055307;28;20034;-74
2022/05/27 03:19:58;;;;;;;13.38;2.30;;;15.90;99.90;;;;;;5055121;28;20025;-74
2022/05/27 03:22:29;;;;;;;7.88;2.40;;;15.80;99.90;;;;;;5055379;28;20021;-73
2022/05/27 03:25:37;;;;;;;8.85;2.47;;;15.80;99.90;;;;;;5054816;28;20381;-73
2022/05/27 03:28:32;;;;;;;13.73;2.95;;;15.80;99.90;;;;;;5054935;28;20025;-73
2022/05/27 03:30:57;;;;;;;10.68;2.53;;;15.70;99.90;;;;;;5055052;28;20032;-73
2022/05/27 03:33:28;;;;;;;8.93;2.20;;;15.70;99.90;;;;;;5055174;28;20040;-73
2022/05/27 03:36:09;;;;;;;11.60;2.65;;;15.70;99.90;;;;;;5055000;28;20372;-73
2022/05/27 03:38:38;;;;;;;5.85;2.40;;;15.70;99.90;;;;;;5055115;28;20036;-73
2022/05/27 03:41:18;;;;;;;7.05;2.13;;;15.70;99.90;;;;;;5054942;28;20017;-74
2022/05/27 03:43:44;;;;;;;8.85;2.20;;;15.70;99.90;;;;;;5055008;28;20096;-73
2022/05/27 03:46:10;;;;;;;9.35;2.45;;;15.70;99.90;;;;;;5054648;28;20507;-73
2022/05/27 03:48:37;;;;;;;8.15;2.50;;;15.70;99.90;;;;;;5054427;28;20049;-74
2022/05/27 03:51:19;;;;;;;11.75;2.17;;;15.70;99.90;;;;;;5054495;28;20055;-74
2022/05/27 03:54:03;;;;;;;9.73;2.00;;;15.70;99.90;;;;;;5054821;28;20025;-74
2022/05/27 03:56:33;;;;;;;6.45;2.33;;;15.70;99.90;;;;;;5070085;28;20029;-73
2022/05/27 03:59:00;;;;;;;7.43;1.80;;;15.70;99.90;;;;;;5054271;28;20045;-73
2022/05/27 04:01:29;;;;;;;11.10;1.73;;;15.70;99.90;;;;;;5054315;28;20143;-74
2022/05/27 04:04:00;;;;;;;7.97;2.17;;;15.70;99.90;;;;;;5054531;28;20078;-74
2022/05/27 04:06:27;;;;;;;7.60;2.00;;;15.70;99.90;;;;;;5054621;28;20064;-74
2022/05/27 04:08:53;;;;;;;8.38;2.00;;;15.70;99.90;;;;;;5054296;28;20392;-73
2022/05/27 04:11:19;;;;;;;7.38;2.38;;;15.70;99.90;;;;;;5054035;28;20032;-73
2022/05/27 04:13:46;;;;;;;7.68;1.98;;;15.70;99.90;;;;;;5053764;28;20028;-73
2022/05/27 04:16:11;;;;;;;8.48;1.80;;;15.70;99.90;;;;;;5054275;28;20028;-73
2022/05/27 04:18:37;;;;;;;7.35;1.80;;;15.70;99.90;;;;;;5054048;28;20021;-73
2022/05/27 04:21:03;;;;;;;9.80;1.70;;;15.60;99.90;;;;;;5054264;28;20108;-73
2022/05/27 04:23:28;;;;;;;8.95;2.17;;;15.70;99.90;;;;;;5053956;28;20021;-73
2022/05/27 04:25:54;;;;;;;4.03;1.30;;;15.60;99.90;;;;;;5053864;28;20098;-74
2022/05/27 04:28:19;;;;;;;7.45;1.80;;;15.70;99.90;;;;;;5053690;28;20029;-73
2022/05/27 04:30:45;;;;;;;7.45;2.00;;;15.70;99.90;;;;;;5053459;28;20040;-74
2022/05/27 04:33:12;;;;;;;12.93;2.28;;;15.70;99.90;;;;;;5053779;28;20032;-74
2022/05/27 04:35:38;;;;;;;10.27;1.75;;;15.70;99.90;;;;;;5053891;28;20029;-73
2022/05/27 04:38:03;;;;;;;8.45;1.90;;;15.70;99.90;;;;;;5053719;28;20464;-73
2022/05/27 04:40:29;;;;;;;10.05;2.22;;;15.70;99.90;;;;;;5053742;28;20108;-74
2022/05/27 04:42:55;;;;;;;9.45;1.95;;;15.70;99.90;;;;;;5053780;28;20594;-74
2022/05/27 04:45:21;;;;;;;7.85;2.03;;;15.70;99.90;;;;;;5053558;28;20365;-73
2022/05/27 04:47:47;;;;;;;9.25;2.55;;;15.70;99.90;;;;;;5053211;28;20064;-74
2022/05/27 04:50:14;;;;;;;9.20;2.08;;;15.70;99.90;;;;;;5053556;28;20037;-74
2022/05/27 04:52:41;;;;;;;12.95;2.20;;;15.60;99.90;;;;;;5053537;28;20377;-74
2022/05/27 04:55:10;;;;;;;12.80;2.83;;;15.60;99.90;;;;;;5053457;28;20078;-74
2022/05/27 04:57:52;;;;;;;10.02;1.75;;;15.60;99.90;;;;;;5053298;28;20430;-74
2022/05/27 05:00:22;;;;;;;8.35;1.80;;;15.50;99.90;;;;;;5053565;28;20107;-74
2022/05/27 05:02:48;;;;;;;14.18;2.63;;;15.50;99.90;;;;;;5053071;28;20435;-73
2022/05/27 05:05:17;;;;;;;8.48;2.00;;;15.60;99.90;;;;;;5053373;28;20109;-74
2022/05/27 05:07:45;;;;;;;11.93;2.30;;;15.70;99.90;;;;;;5053262;28;20029;-74
2022/05/27 05:10:12;;;;;;;10.88;2.17;;;15.60;99.90;;;;;;5052996;28;20029;-74
2022/05/27 05:12:38;;;;;;;15.65;2.60;;;15.60;99.90;;;;;;5053097;28;20484;-74
2022/05/27 05:15:04;;;;;;;10.65;2.40;;;15.60;99.90;;;;;;5053372;28;20032;-74
2022/05/27 05:17:30;;;;;;;13.18;2.40;;;15.70;99.90;;;;;;5052493;28;20052;-74
2022/05/27 05:19:56;;;;;;;14.77;2.35;;;15.70;99.90;;;;;;5053081;28;20389;-73
2022/05/27 05:22:23;;;;;;;8.32;2.30;;;15.70;99.90;;;;;;5053069;28;20032;-73
2022/05/27 05:24:53;;;;;;;10.27;2.40;;;15.70;99.90;;;;;;5053275;28;20029;-73
2022/05/27 05:27:19;;;;;;;12.00;3.25;;;15.80;99.90;;;;;;5053169;28;20025;-73
2022/05/27 05:29:45;;;;;;;13.13;3.13;;;15.80;99.90;;;;;;5053235;28;20037;-73
2022/05/27 05:32:10;;;;;;;12.57;2.50;;;15.80;99.90;;;;;;5052883;28;20021;-73
2022/05/27 05:34:36;;;;;;;13.73;2.95;;;15.90;99.90;;;;;;5054478;28;20029;-73
2022/05/27 05:37:02;;;;;;;13.55;2.45;;;15.90;99.90;;;;;;5057094;28;20048;-73
2022/05/27 05:39:27;;;;;;;11.70;2.55;;;16.00;99.90;;;;;;5056817;28;20364;-73
2022/05/27 05:41:59;;;;;;;10.60;2.70;;;15.90;99.90;;;;;;5057209;28;20028;-74
2022/05/27 05:44:26;;;;;;;10.20;2.92;;;16.00;99.90;;;;;;5057169;28;20021;-74
2022/05/27 05:46:52;;;;;;;10.82;2.67;;;16.00;99.90;;;;;;5056970;28;20051;-74
2022/05/27 05:49:18;;;;;;;15.50;3.83;;;16.10;99.90;;;;;;5057028;28;20029;-74
2022/05/27 05:51:44;;;;;;;14.18;3.03;;;16.00;99.90;;;;;;5056539;28;20114;-74
2022/05/27 05:54:10;;;;;;;15.55;3.05;;;16.00;99.90;;;;;;5056951;28;20217;-75
2022/05/27 05:56:36;;;;;;;13.23;3.03;;;16.00;99.90;;;;;;5056919;28;20501;-74
2022/05/27 05:59:02;;;;;;;12.95;3.17;;;16.10;99.90;;;;;;5056512;28;20044;-74
2022/05/27 06:01:28;;;;;;;12.32;3.03;;;16.10;99.90;;;;;;5056727;28;20025;-74
2022/05/27 06:03:53;;;;;;;10.98;2.70;;;16.20;99.90;;;;;;5056718;28;20468;-74
2022/05/27 06:06:19;;;;;;;13.75;2.85;;;16.20;99.90;;;;;;5056781;28;20021;-74
2022/05/27 06:08:45;;;;;;;9.38;2.53;;;16.20;99.90;;;;;;5056275;28;20395;-74
2022/05/27 06:11:10;;;;;;;11.32;2.60;;;16.20;99.90;;;;;;5056693;28;20051;-74
2022/05/27 06:13:36;;;;;;;10.45;2.70;;;16.30;99.90;;;;;;5056511;28;20067;-74
2022/05/27 06:16:05;;;;;;;10.15;2.30;;;16.40;99.90;;;;;;5056727;28;20116;-74
2022/05/27 06:18:30;;;;;;;10.73;2.60;;;16.30;99.90;;;;;;5056512;28;20090;-75
2022/05/27 06:20:56;;;;;;;11.07;2.40;;;16.40;99.90;;;;;;5056501;28;20453;-74
2022/05/27 06:23:22;;;;;;;12.45;2.70;;;16.40;99.90;;;;;;5056512;28;20025;-74
2022/05/27 06:25:57;;;;;;;12.32;2.05;;;16.40;99.90;;;;;;5056154;28;20480;-74
2022/05/27 06:36:36;;;;;;;8.65;1.77;;;16.50;99.10;;;;;;5056023;28;20064;-75
2022/05/27 06:39:05;;;;;;;8.02;1.55;;;16.40;98.70;;;;;;5055777;28;20064;-74
2022/05/27 06:41:32;;;;;;;13.65;2.15;;;16.30;98.20;;;;;;5055815;28;20036;-74
2022/05/27 06:43:57;;;;;;;11.05;1.80;;;16.30;98.20;;;;;;5055893;28;20472;-74
2022/05/27 06:46:23;;;;;;;8.85;1.58;;;16.30;98.00;;;;;;5055343;28;20029;-74
2022/05/27 06:48:49;;;;;;;11.57;2.05;;;16.30;97.80;;;;;;5055864;28;20146;-74
2022/05/27 06:51:15;;;;;;;9.90;1.77;;;16.40;97.90;;;;;;5055722;28;20084;-74
2022/05/27 06:53:40;;;;;;;9.43;1.45;;;16.50;97.50;;;;;;5055633;28;20029;-74
2022/05/27 06:56:08;;;;;;;10.77;1.90;;;16.50;97.50;;;;;;5055558;28;20358;-74
2022/05/27 06:58:34;;;;;;;8.40;1.60;;;16.60;97.00;;;;;;5055405;28;20554;-74
2022/05/27 07:01:00;;;;;;;8.52;1.40;;;16.60;96.20;;;;;;5055488;28;20056;-74
2022/05/27 07:03:25;;;;;;;12.48;1.60;;;16.60;96.10;;;;;;5055774;28;20064;-74
2022/05/27 07:05:51;;;;;;;10.30;1.38;;;16.60;96.30;;;;;;5055441;28;20025;-74
2022/05/27 07:08:17;;;;;;;10.05;1.27;;;16.60;96.50;;;;;;5055734;28;20032;-74
2022/05/27 07:10:43;;;;;;;10.77;1.60;;;16.60;96.50;;;;;;5054954;28;20033;-74
2022/05/27 07:13:09;;;;;;;8.63;1.77;;;16.70;95.50;;;;;;5055278;28;20031;-74
2022/05/27 07:15:35;;;;;;;9.93;2.13;;;16.70;95.10;;;;;;5055167;28;20491;-74
2022/05/27 07:18:03;;;;;;;8.75;1.55;;;16.70;94.00;;;;;;5055300;28;20029;-74
2022/05/27 07:20:29;;;;;;;7.70;1.50;;;16.80;94.10;;;;;;5054888;28;20465;-74
2022/05/27 07:22:54;;;;;;;8.68;1.40;;;16.80;94.10;;;;;;5055124;28;20031;-74
2022/05/27 07:25:20;;;;;;;13.02;1.83;;;16.80;92.60;;;;;;5054984;28;20132;-75
2022/05/27 07:27:46;;;;;;;10.02;1.80;;;16.70;91.00;;;;;;5055287;28;20021;-73
2022/05/27 07:30:15;;;;;;;12.48;1.30;;;16.60;90.30;;;;;;5055284;28;20401;-73
2022/05/27 07:32:43;;;;;;;7.55;1.25;;;16.60;88.20;;;;;;5054993;28;20053;-73
2022/05/27 07:35:10;;;;;;;10.07;1.48;;;16.70;88.50;;;;;;5054967;28;20503;-75
2022/05/27 07:37:36;;;;;;;10.65;1.35;;;16.70;88.40;;;;;;5054661;28;20074;-74
2022/05/27 07:40:02;;;;;;;8.82;1.50;;;16.80;88.60;;;;;;5054605;28;20472;-74
2022/05/27 07:42:28;;;;;;;14.82;1.95;;;16.90;86.10;;;;;;5054652;28;20040;-74
2022/05/27 07:44:53;;;;;;;14.90;1.88;;;17.00;84.40;;;;;;5054655;28;20021;-74
2022/05/27 07:47:19;;;;;;;8.95;1.38;;;17.00;85.20;;;;;;5054308;28;20044;-74
2022/05/27 07:49:45;;;;;;;11.65;1.40;;;17.00;83.30;;;;;;5054467;28;20033;-74
2022/05/27 07:52:11;;;;;;;9.23;1.60;;;17.10;84.60;;;;;;5054471;28;20033;-74
2022/05/27 07:54:36;;;;;;;11.73;1.50;;;17.20;84.30;;;;;;5054399;28;20128;-74
2022/05/27 07:57:23;;;;;;;9.65;1.60;;;17.20;81.80;;;;;;5053801;28;20017;-74
2022/05/27 08:00:09;;;;;;;17.27;2.42;;;17.20;81.50;;;;;;5054476;28;20039;-74
2022/05/27 08:02:35;;;;;;;12.50;1.77;;;17.20;80.00;;;;;;5053499;28;20544;-74
2022/05/27 08:05:01;;;;;;;13.93;1.67;;;17.10;81.20;;;;;;5054331;28;20075;-74
2022/05/27 08:07:27;;;;;;;12.70;1.40;;;17.20;80.10;;;;;;5054543;28;20036;-74
2022/05/27 08:09:53;;;;;;;8.02;1.40;;;17.20;80.70;;;;;;5054211;28;20049;-74
2022/05/27 08:12:19;;;;;;;12.65;1.90;;;17.30;80.80;;;;;;5054247;28;20029;-74
2022/05/27 08:14:45;;;;;;;11.85;1.58;;;17.50;81.00;;;;;;5053914;28;20027;-73
2022/05/27 08:17:10;;;;;;;9.95;2.90;;;17.60;80.50;;;;;;5053939;28;20044;-74
2022/05/27 08:19:36;;;;;;;7.80;1.33;;;17.70;80.50;;;;;;5053755;28;20075;-74
2022/05/27 08:22:03;;;;;;;9.23;1.73;;;17.90;80.00;;;;;;5054179;28;20066;-74
2022/05/27 08:24:28;;;;;;;12.23;1.88;;;18.00;79.10;;;;;;5054107;28;20029;-74
2022/05/27 08:26:54;;;;;;;9.02;1.45;;;17.90;77.20;;;;;;5054081;28;20028;-74
2022/05/27 08:29:20;;;;;;;9.82;1.73;;;17.90;77.60;;;;;;5053845;28;20472;-74
2022/05/27 08:31:45;;;;;;;15.40;2.30;;;17.80;78.00;;;;;;5054102;28;20040;-74
2022/05/27 08:39:46;;;;;;;10.32;1.73;;;17.50;79.10;;;;;;5053552;28;20103;-74
2022/05/27 08:42:28;;;;;;;12.40;1.85;;;17.60;79.80;;;;;;5053304;28;20033;-74
2022/05/27 08:45:09;;;;;;;8.80;1.45;;;17.60;79.30;;;;;;5053486;28;20032;-74
2022/05/27 08:47:39;;;;;;;8.27;1.65;;;17.50;79.90;;;;;;5053007;28;20492;-74
2022/05/27 08:50:07;;;;;;;10.30;1.42;;;17.50;79.10;;;;;;5053383;28;20033;-74
2022/05/27 08:52:46;;;;;;;8.15;1.40;;;17.50;75.70;;;;;;5053363;28;20025;-74
2022/05/27 09:01:46;;;;;;;9.25;1.35;;;17.80;72.00;;;;;;5011622;28;20078;-73
2022/05/27 09:04:17;;;;;;;6.32;1.30;;;17.80;72.30;;;;;;5045351;28;20069;-74
2022/05/27 09:06:48;;;;;;;6.35;1.30;;;17.90;72.90;;;;;;5053014;28;20461;-74
2022/05/27 09:09:21;;;;;;;8.52;1.42;;;17.90;72.50;;;;;;5051825;28;20448;-74
2022/05/27 09:12:10;;;;;;;8.43;1.65;;;18.00;72.00;;;;;;5052711;28;20151;-74
2022/05/27 09:14:40;;;;;;;12.27;1.50;;;18.00;70.80;;;;;;5032643;28;20084;-74
2022/05/27 09:17:10;;;;;;;8.73;1.30;;;18.20;68.80;;;;;;5053123;28;20024;-75
2022/05/27 09:20:07;;;;;;;8.05;1.60;;;18.10;67.90;;;;;;5053241;28;20033;-74
2022/05/27 09:22:32;;;;;;;9.63;1.23;;;18.30;67.90;;;;;;5053097;28;20375;-74
2022/05/27 09:25:16;;;;;;;10.52;1.60;;;18.30;68.60;;;;;;5052425;28;20031;-74
2022/05/27 09:27:57;;;;;;;8.35;1.92;;;18.30;69.00;;;;;;5053053;28;20033;-74
2022/05/27 09:30:23;;;;;;;10.75;1.70;;;18.30;68.30;;;;;;5052597;28;20029;-75
2022/05/27 09:33:00;;;;;;;9.02;1.48;;;18.30;68.30;;;;;;5052558;28;20416;-75
2022/05/27 09:35:29;;;;;;;9.23;1.80;;;18.20;69.10;;;;;;5053041;28;20036;-75
2022/05/27 09:38:00;;;;;;;10.18;1.70;;;18.20;68.90;;;;;;5052706;28;20027;-75
2022/05/27 09:40:54;;;;;;;8.15;1.48;;;18.40;68.50;;;;;;5053053;28;20104;-75
2022/05/27 09:43:44;;;;;;;13.15;1.70;;;18.60;66.50;;;;;;5052727;28;20060;-75
2022/05/27 09:46:16;;;;;;;10.13;1.55;;;18.60;65.40;;;;;;5052621;28;20055;-75
2022/05/27 09:48:44;;;;;;;10.95;2.25;;;18.70;66.20;;;;;;5052434;28;20116;-75
2022/05/27 09:51:12;;;;;;;8.52;1.60;;;18.80;64.80;;;;;;5052157;28;20256;-75
2022/05/27 09:53:44;;;;;;;7.28;1.88;;;19.00;64.50;;;;;;5052929;28;20025;-75
2022/05/27 09:56:11;;;;;;;9.20;1.70;;;18.90;64.40;;;;;;5052543;28;20469;-75
2022/05/27 09:58:40;;;;;;;11.05;1.63;;;18.80;64.80;;;;;;5052565;28;20032;-75
2022/05/27 10:01:38;;;;;;;9.35;1.52;;;18.70;64.60;;;;;;5052685;28;20070;-75
2022/05/27 10:04:12;;;;;;;8.10;1.58;;;18.80;65.30;;;;;;5029421;28;20061;-75
2022/05/27 10:06:39;;;;;;;8.07;1.73;;;19.00;64.40;;;;;;5052661;28;20025;-75
2022/05/27 10:09:11;;;;;;;8.90;1.23;;;19.10;64.20;;;;;;5051931;28;20029;-75
2022/05/27 10:11:49;;;;;;;10.65;1.77;;;19.00;63.50;;;;;;5052159;28;20037;-75
2022/05/27 10:14:18;;;;;;;7.78;1.42;;;18.90;63.30;;;;;;5052543;28;20021;-75
2022/05/27 10:17:08;;;;;;;12.40;1.60;;;18.80;61.50;;;;;;5052288;28;20025;-75
2022/05/27 10:19:34;;;;;;;10.25;1.60;;;18.80;61.30;;;;;;5052257;28;20021;-75
2022/05/27 10:22:06;;;;;;;7.75;1.60;;;18.80;62.10;;;;;;5055747;28;20040;-75
2022/05/27 10:24:37;;;;;;;10.50;1.97;;;19.00;62.40;;;;;;5056039;28;20051;-75
2022/05/27 10:27:10;;;;;;;10.38;2.25;;;19.20;61.20;;;;;;5056412;28;20024;-75
2022/05/27 10:29:59;;;;;;;9.73;2.22;;;19.40;61.00;;;;;;5055738;28;20021;-75
2022/05/27 10:32:31;;;;;;;10.20;1.70;;;19.50;59.90;;;;;;5056062;28;20052;-76
2022/05/27 10:34:58;;;;;;;12.57;1.73;;;19.50;58.60;;;;;;5055858;28;20036;-76
2022/05/27 10:37:36;;;;;;;8.02;1.50;;;19.40;59.60;;;;;;5055648;28;20103;-75
2022/05/27 10:40:14;;;;;;;8.50;1.63;;;19.30;60.20;;;;;;5055631;28;20051;-75
2022/05/27 10:42:53;;;;;;;8.23;1.48;;;19.40;60.60;;;;;;5055441;28;20051;-75
2022/05/27 10:45:29;;;;;;;6.22;1.60;;;19.60;59.20;;;;;;5055464;28;20072;-75
2022/05/27 10:48:16;;;;;;;10.45;1.95;;;19.70;58.50;;;;;;5055183;28;20071;-75
2022/05/27 10:51:02;;;;;;;9.85;1.17;;;19.70;57.80;;;;;;5055510;28;20112;-75
2022/05/27 10:53:37;;;;;;;9.90;1.70;;;19.60;58.60;;;;;;5055407;28;20032;-75
2022/05/27 10:56:26;;;;;;;7.97;1.50;;;19.50;57.70;;;;;;5055326;28;20029;-75
2022/05/27 11:02:45;;;;;;;9.40;1.77;;;19.50;57.50;;;;;;5055218;28;20032;-75
2022/05/27 11:05:46;;;;;;;8.98;1.50;;;19.20;57.50;;;;;;5054890;28;20472;-75
2022/05/27 11:08:27;;;;;;;8.48;1.52;;;19.20;57.10;;;;;;5055240;28;20047;-76
2022/05/27 11:11:10;;;;;;;6.82;2.13;;;19.30;56.60;;;;;;5055151;28;20037;-75
2022/05/27 11:17:12;;;;;;;9.45;1.90;;;19.50;54.10;;;;;;5055055;28;20036;-75
2022/05/27 11:19:58;;;;;;;9.57;1.55;;;19.60;55.50;;;;;;5055012;28;20480;-75
2022/05/27 11:22:38;;;;;;;9.13;1.65;;;19.60;55.60;;;;;;5055135;28;20048;-75
2022/05/27 11:25:24;;;;;;;9.38;1.70;;;19.60;56.40;;;;;;5054774;28;20092;-75
2022/05/27 11:28:11;;;;;;;9.90;1.52;;;19.70;57.10;;;;;;5033376;28;20062;-75
2022/05/27 11:30:55;;;;;;;12.50;1.90;;;19.90;55.80;;;;;;5054783;28;20036;-75
2022/05/27 11:33:47;;;;;;;9.82;1.45;;;20.10;54.40;;;;;;5053677;28;20028;-75
2022/05/27 11:36:42;;;;;;;11.43;1.98;;;20.10;54.30;;;;;;5054824;28;20029;-76
2022/05/27 11:39:38;;;;;;;9.60;1.70;;;20.10;53.70;;;;;;5053288;28;20090;-75
2022/05/27 11:42:10;;;;;;;12.05;1.98;;;20.00;54.10;;;;;;5054804;28;20028;-75
2022/05/27 11:44:54;;;;;;;9.57;1.70;;;19.90;54.50;;;;;;5054634;28;20017;-75
2022/05/27 11:47:25;;;;;;;9.18;1.85;;;19.80;55.20;;;;;;5053782;28;20969;-75
2022/05/27 11:50:28;;;;;;;8.02;1.50;;;19.90;53.60;;;;;;5054072;28;20033;-75
2022/05/27 11:53:39;;;;;;;8.10;1.63;;;19.90;54.10;;;;;;5054539;28;20029;-75
2022/05/27 11:56:32;;;;;;;10.80;1.58;;;19.90;54.20;;;;;;5035345;28;20060;-75
2022/05/27 11:59:03;;;;;;;;;;;20.00;54.90;;;;;;5054863;28;20031;-75
2022/05/27 12:01:41;;;;;;;9.40;2.05;;;20.00;55.20;;;;;;5054254;28;19905;-75
2022/05/27 12:04:25;;;;;;;13.88;2.15;;;20.20;56.30;;;;;;5054473;28;20623;-75
2022/05/27 12:07:09;;;;;;;10.93;2.17;;;20.20;56.00;;;;;;5054177;28;20028;-75
2022/05/27 12:09:46;;;;;;;12.02;2.13;;;20.00;55.90;;;;;;5054015;28;20071;-74
2022/05/27 12:12:22;;;;;;;7.40;1.67;;;19.90;56.30;;;;;;5054025;28;20052;-75
2022/05/27 12:15:12;;;;;;;9.13;1.60;;;20.00;57.40;;;;;;5054159;28;20100;-75
2022/05/27 12:17:42;;;;;;;8.40;1.63;;;20.10;56.90;;;;;;5046284;28;20116;-75
2022/05/27 12:20:09;;;;;;;7.28;1.92;;;20.10;55.30;;;;;;5053788;28;20027;-75
2022/05/27 12:22:35;;;;;;;7.97;1.55;;;20.00;55.60;;;;;;5053471;28;20527;-75
2022/05/27 12:25:19;;;;;;;6.60;1.08;;;20.00;55.60;;;;;;5053894;28;20473;-75
2022/05/27 12:27:46;;;;;;;8.90;1.48;;;20.00;56.00;;;;;;5053813;28;20025;-75
2022/05/27 12:30:17;;;;;;;9.98;1.77;;;19.90;55.70;;;;;;5053860;28;20031;-75
2022/05/27 12:32:45;;;;;;;8.98;2.10;;;19.90;56.00;;;;;;5053686;28;20024;-75
2022/05/27 12:35:26;;;;;;;10.30;1.95;;;19.90;55.60;;;;;;5053497;28;20029;-75
2022/05/27 12:38:01;;;;;;;10.95;1.45;;;20.10;56.00;;;;;;5053365;28;20032;-75
2022/05/27 12:40:30;;;;;;;9.00;1.40;;;20.20;54.70;;;;;;5053388;28;20049;-75
2022/05/27 12:43:00;;;;;;;9.05;1.50;;;20.20;55.00;;;;;;5053022;28;20496;-75
2022/05/27 12:46:00;;;;;;;5.15;1.35;;;20.20;52.70;;;;;;5053440;28;20036;-75
2022/05/27 12:48:29;;;;;;;7.38;1.40;;;20.20;52.70;;;;;;5053190;28;20087;-75
2022/05/27 12:51:05;;;;;;;8.73;1.30;;;20.30;53.20;;;;;;5053417;28;20029;-74
2022/05/27 12:53:50;;;;;;;9.40;1.25;;;20.50;53.40;;;;;;5053100;28;20475;-74
2022/05/27 13:02:14;;;;;;;10.63;1.67;;;20.40;52.80;;;;;;5053355;28;20397;-74
2022/05/27 13:04:55;;;;;;;7.97;1.60;;;20.30;53.40;;;;;;5053245;28;20047;-74
2022/05/27 13:07:27;;;;;;;10.73;1.42;;;20.40;53.60;;;;;;5053376;28;20029;-75
2022/05/27 13:09:53;;;;;;;;;;;20.50;53.10;;;;;;5053412;28;20622;-75
2022/05/27 13:12:47;;;;;;;7.25;1.55;;;20.60;52.90;;;;;;5053187;28;19920;-76
2022/05/27 13:15:54;;;;;;;7.95;1.45;;;20.50;52.10;;;;;;5053260;28;20024;-75
2022/05/27 13:18:26;;;;;;;8.27;1.70;;;20.20;51.90;;;;;;5029055;28;20033;-75
2022/05/27 13:21:01;;;;;;;8.15;1.08;;;20.10;53.50;;;;;;5052943;28;20029;-75
2022/05/27 13:23:29;;;;;;;6.32;1.42;;;20.00;52.20;;;;;;5053224;28;20391;-75
2022/05/27 13:26:14;;;;;;;8.48;1.60;;;19.90;51.90;;;;;;5052756;28;20495;-75
2022/05/27 13:28:47;;;;;;;8.23;1.35;;;20.00;52.50;;;;;;5052852;28;20544;-75
2022/05/27 13:31:18;;;;;;;6.47;1.33;;;20.00;52.30;;;;;;5052773;28;20052;-75
2022/05/27 13:34:19;;;;;;;7.13;1.10;;;20.00;53.60;;;;;;5052699;28;20025;-75
2022/05/27 13:36:55;;;;;;;6.43;1.17;;;20.20;53.00;;;;;;5017966;28;20037;-75
2022/05/27 13:39:43;;;;;;;9.57;1.30;;;20.30;52.50;;;;;;5052821;28;20017;-75
2022/05/27 13:42:11;;;;;;;9.65;1.73;;;20.00;52.00;;;;;;5053057;28;20427;-75
2022/05/27 13:44:40;;;;;;;5.20;0.77;;;19.90;53.50;;;;;;5052762;28;20113;-75
2022/05/27 13:47:12;;;;;;;8.00;1.23;;;20.00;54.40;;;;;;5052560;28;20045;-75
2022/05/27 13:49:41;;;;;;;8.05;1.20;;;20.00;54.00;;;;;;5053054;28;20028;-75